createdAt,value
2017-12-01T00:00:40.100Z,42.17
2017-12-01T00:03:08.620Z,46.93
2017-12-01T00:05:37.191Z,99.80
2017-12-01T00:08:05.566Z,71.87
2017-12-01T00:10:34.036Z,59.83
2017-12-01T00:13:02.353Z,80.57
2017-12-01T00:15:30.665Z,47.93
2017-12-01T00:17:59.115Z,96.47
2017-12-01T00:20:27.563Z,55.03
2017-12-01T00:22:56.013Z,70.07
2017-12-01T00:25:24.527Z,69.23
2017-12-01T00:27:52.967Z,78.03
2017-12-01T00:30:21.384Z,52.33
2017-12-01T00:32:49.764Z,85.20
2017-12-01T00:35:18.141Z,42.07
2017-12-01T00:37:46.594Z,62.27
2017-12-01T00:40:14.989Z,43.43
2017-12-01T00:42:44.067Z,48.80
2017-12-01T00:45:12.549Z,46.27
2017-12-01T00:47:40.953Z,44.90
2017-12-01T00:50:09.332Z,57.13
2017-12-01T00:52:37.806Z,51.00
2017-12-01T00:55:06.285Z,71.00
2017-12-01T00:57:34.692Z,85.90
2017-12-01T01:00:04.167Z,131.83
2017-12-01T01:02:32.757Z,44.00
2017-12-01T01:05:01.346Z,74.10
2017-12-01T01:07:29.798Z,50.87
2017-12-01T01:09:58.295Z,55.40
2017-12-01T01:12:26.820Z,54.80
2017-12-01T01:14:55.242Z,38.60
2017-12-01T01:17:23.715Z,41.10
2017-12-01T01:19:52.154Z,49.50
2017-12-01T01:22:20.807Z,56.53
2017-12-01T01:24:49.394Z,49.73
2017-12-01T01:30:14.777Z,44.87
2017-12-01T01:32:43.195Z,52.23
2017-12-01T01:35:11.657Z,43.60
2017-12-01T01:37:40.048Z,33.90
2017-12-01T01:40:08.492Z,34.97
2017-12-01T01:42:37.660Z,40.30
2017-12-01T01:45:06.151Z,36.17
2017-12-01T01:47:34.587Z,37.83
2017-12-01T01:50:02.972Z,36.83
2017-12-01T01:52:31.510Z,77.80
2017-12-01T01:55:00.082Z,41.57
2017-12-01T01:57:29.320Z,39.83
2017-12-01T01:59:57.732Z,48.83
2017-12-01T02:02:26.144Z,62.90
2017-12-01T02:04:55.272Z,118.27
2017-12-01T02:07:23.653Z,38.37
2017-12-01T02:09:52.197Z,41.43
2017-12-01T02:12:21.558Z,36.97
2017-12-01T02:14:53.240Z,48.20
2017-12-01T02:17:21.777Z,62.77
2017-12-01T02:19:50.218Z,45.73
2017-12-01T02:22:19.477Z,74.87
2017-12-01T02:24:47.890Z,34.60
2017-12-01T02:27:18.466Z,115.13
2017-12-01T02:29:46.898Z,124.00
2017-12-01T02:32:15.338Z,77.53
2017-12-01T02:34:43.857Z,45.47
2017-12-01T02:37:12.219Z,29.67
2017-12-01T02:39:40.666Z,55.97
2017-12-01T02:42:09.046Z,43.40
2017-12-01T02:44:37.583Z,115.47
2017-12-01T02:47:06.009Z,67.90
2017-12-01T02:49:34.532Z,71.23
2017-12-01T02:52:03.118Z,219.90
2017-12-01T02:54:31.651Z,76.13
2017-12-01T02:57:00.136Z,40.40
2017-12-01T02:59:28.516Z,98.47
2017-12-01T03:01:56.895Z,59.87
2017-12-01T03:04:25.412Z,65.27
2017-12-01T03:06:53.960Z,55.97
2017-12-01T03:09:22.543Z,101.10
2017-12-01T03:11:51.161Z,54.57
2017-12-01T03:14:19.711Z,44.77
2017-12-01T03:16:49.092Z,46.13
2017-12-01T03:19:17.862Z,146.40
2017-12-01T03:21:46.769Z,49.33
2017-12-01T03:24:15.373Z,52.20
2017-12-01T03:26:43.906Z,35.33
2017-12-01T03:29:12.362Z,29.93
2017-12-01T03:31:40.945Z,56.97
2017-12-01T03:34:09.563Z,106.27
2017-12-01T03:36:38.073Z,34.90
2017-12-01T03:39:06.666Z,27.90
2017-12-01T03:41:35.281Z,34.67
2017-12-01T03:44:03.839Z,27.53
2017-12-01T03:46:32.365Z,27.40
2017-12-01T03:49:00.797Z,45.10
2017-12-01T03:51:29.283Z,83.13
2017-12-01T03:53:57.864Z,38.07
2017-12-01T03:56:26.428Z,33.00
2017-12-01T03:58:55.861Z,22.97
2017-12-01T04:01:24.431Z,19.87
2017-12-01T04:03:52.909Z,69.27
2017-12-01T04:06:21.410Z,28.37
2017-12-01T04:08:49.904Z,30.23
2017-12-01T04:11:18.974Z,20.83
2017-12-01T04:13:47.623Z,36.77
2017-12-01T04:16:16.800Z,24.97
2017-12-01T04:18:45.236Z,19.63
2017-12-01T04:21:13.851Z,34.07
2017-12-01T04:23:42.468Z,24.63
2017-12-01T04:26:11.695Z,37.53
2017-12-01T04:28:40.128Z,59.70
2017-12-01T04:31:08.543Z,22.80
2017-12-01T04:33:37.801Z,23.23
2017-12-01T04:36:06.394Z,26.40
2017-12-01T04:38:34.856Z,27.60
2017-12-01T04:41:03.373Z,26.23
2017-12-01T04:43:32.183Z,23.47
2017-12-01T04:46:03.431Z,27.43
2017-12-01T04:48:32.069Z,18.87
2017-12-01T04:51:00.499Z,17.50
2017-12-01T04:53:29.042Z,20.27
2017-12-01T04:55:57.628Z,18.40
2017-12-01T04:58:27.063Z,18.83
2017-12-01T05:00:55.548Z,17.17
2017-12-01T05:03:24.094Z,20.33
2017-12-01T05:05:53.217Z,24.33
2017-12-01T05:08:22.489Z,16.80
2017-12-01T05:10:52.364Z,20.40
2017-12-01T05:13:20.943Z,21.03
2017-12-01T05:15:49.841Z,22.20
2017-12-01T05:18:18.309Z,20.43
2017-12-01T05:20:46.700Z,19.83
2017-12-01T05:23:16.061Z,22.73
2017-12-01T05:25:45.288Z,20.13
2017-12-01T05:28:13.669Z,22.30
2017-12-01T05:30:42.399Z,20.10
2017-12-01T05:33:11.519Z,18.73
2017-12-01T05:35:40.848Z,19.03
2017-12-01T05:38:09.636Z,20.47
2017-12-01T05:40:40.609Z,18.23
2017-12-01T05:43:10.129Z,17.50
2017-12-01T05:45:41.432Z,17.90
2017-12-01T05:48:10.645Z,19.13
2017-12-01T05:50:39.871Z,17.60
2017-12-01T05:53:08.829Z,18.07
2017-12-01T05:55:38.961Z,17.80
2017-12-01T05:58:07.782Z,18.80
2017-12-01T06:00:36.730Z,16.70
2017-12-01T06:03:05.079Z,17.40
2017-12-01T06:05:33.440Z,18.03
2017-12-01T06:08:01.769Z,17.80
2017-12-01T06:10:30.141Z,17.60
2017-12-01T06:12:58.466Z,18.20
2017-12-01T06:15:26.835Z,18.27
2017-12-01T06:17:55.203Z,22.20
2017-12-01T06:20:23.539Z,19.67
2017-12-01T06:22:51.891Z,21.77
2017-12-01T06:25:21.009Z,26.67
2017-12-01T06:27:49.349Z,19.27
2017-12-01T06:30:18.484Z,23.67
2017-12-01T06:32:46.825Z,21.37
2017-12-01T06:35:15.147Z,27.90
2017-12-01T06:37:43.483Z,25.13
2017-12-01T06:40:11.792Z,24.67
2017-12-01T06:42:40.131Z,22.87
2017-12-01T06:45:08.456Z,24.43
2017-12-01T06:47:36.805Z,24.53
2017-12-01T06:50:05.920Z,22.53
2017-12-01T06:52:34.248Z,21.97
2017-12-01T06:55:02.599Z,24.43
2017-12-01T06:57:30.936Z,22.60
2017-12-01T07:00:00.031Z,27.03
2017-12-01T07:02:29.151Z,28.03
2017-12-01T07:04:57.471Z,23.90
2017-12-01T07:07:25.812Z,41.40
2017-12-01T07:09:54.172Z,34.80
2017-12-01T07:12:22.529Z,29.63
2017-12-01T07:14:50.852Z,24.53
2017-12-01T07:17:19.195Z,24.40
2017-12-01T07:19:48.275Z,25.90
2017-12-01T07:22:16.647Z,26.70
2017-12-01T07:24:44.991Z,25.23
2017-12-01T07:27:13.314Z,30.73
2017-12-01T07:29:41.651Z,30.83
2017-12-01T07:32:09.967Z,29.33
2017-12-01T07:34:38.311Z,28.17
2017-12-01T07:37:06.631Z,27.67
2017-12-01T07:39:35.719Z,32.30
2017-12-01T07:42:04.049Z,35.43
2017-12-01T07:44:37.869Z,30.20
2017-12-01T07:47:06.183Z,30.10
2017-12-01T07:49:34.499Z,27.27
2017-12-01T07:52:02.848Z,38.13
2017-12-01T07:54:31.935Z,35.30
2017-12-01T07:57:01.024Z,31.23
2017-12-01T07:59:29.373Z,30.40
2017-12-01T08:01:57.696Z,26.77
2017-12-01T08:04:26.806Z,40.00
2017-12-01T08:06:55.176Z,32.13
2017-12-01T08:09:23.509Z,33.50
2017-12-01T08:11:51.832Z,31.80
2017-12-01T08:14:20.946Z,33.47
2017-12-01T08:17:07.182Z,29.73
2017-12-01T08:19:35.533Z,36.50
2017-12-01T08:22:21.407Z,31.67
2017-12-01T08:25:07.723Z,38.93
2017-12-01T08:27:36.052Z,37.90
2017-12-01T08:30:04.379Z,34.27
2017-12-01T08:32:32.736Z,30.03
2017-12-01T08:35:01.062Z,31.83
2017-12-01T08:37:29.410Z,34.77
2017-12-01T08:39:57.762Z,34.13
2017-12-01T08:42:26.091Z,38.03
2017-12-01T08:44:54.413Z,36.90
2017-12-01T08:47:23.536Z,32.13
2017-12-01T08:49:51.856Z,33.13
2017-12-01T08:52:20.170Z,35.70
2017-12-01T08:54:48.503Z,37.27
2017-12-01T08:57:16.820Z,35.73
2017-12-01T08:59:45.940Z,36.57
2017-12-01T09:02:14.261Z,32.13
2017-12-01T09:04:42.615Z,32.20
2017-12-01T09:07:10.951Z,42.00
2017-12-01T09:09:40.032Z,37.40
2017-12-01T09:12:09.163Z,32.17
2017-12-01T09:14:37.500Z,35.50
2017-12-01T09:17:05.829Z,34.00
2017-12-01T09:19:34.158Z,39.23
2017-12-01T09:22:02.475Z,39.23
2017-12-01T09:24:30.843Z,34.50
2017-12-01T09:26:59.178Z,34.97
2017-12-01T09:29:27.523Z,39.70
2017-12-01T09:31:55.867Z,38.33
2017-12-01T09:34:24.972Z,40.57
2017-12-01T09:36:53.328Z,35.00
2017-12-01T09:39:22.424Z,36.13
2017-12-01T09:41:51.505Z,36.40
2017-12-01T09:44:19.859Z,37.03
2017-12-01T09:46:48.171Z,38.53
2017-12-01T09:49:17.256Z,34.50
2017-12-01T09:51:45.591Z,36.40
2017-12-01T09:54:13.933Z,33.37
2017-12-01T09:56:43.031Z,40.67
2017-12-01T09:59:12.128Z,40.37
2017-12-01T10:01:41.236Z,37.07
2017-12-01T10:04:09.564Z,38.50
2017-12-01T10:06:37.899Z,39.50
2017-12-01T10:09:06.244Z,38.40
2017-12-01T10:11:35.386Z,36.40
2017-12-01T10:14:03.699Z,38.97
2017-12-01T10:16:32.058Z,36.70
2017-12-01T10:19:00.401Z,39.00
2017-12-01T10:21:28.734Z,36.07
2017-12-01T10:23:57.124Z,34.67
2017-12-01T10:26:25.462Z,39.60
2017-12-01T10:28:53.808Z,38.87
2017-12-01T10:31:22.151Z,35.97
2017-12-01T10:33:50.525Z,40.10
2017-12-01T10:36:18.827Z,49.50
2017-12-01T10:38:47.961Z,39.13
2017-12-01T10:41:16.280Z,36.87
2017-12-01T10:43:44.594Z,38.80
2017-12-01T10:46:12.936Z,35.83
2017-12-01T10:48:41.267Z,40.20
2017-12-01T10:51:09.614Z,41.00
2017-12-01T10:53:38.712Z,44.80
2017-12-01T10:56:07.145Z,47.57
2017-12-01T10:58:35.479Z,55.53
2017-12-01T11:01:03.803Z,56.17
2017-12-01T11:03:32.169Z,58.27
2017-12-01T11:06:00.506Z,56.23
2017-12-01T11:08:29.600Z,59.07
2017-12-01T11:10:58.707Z,59.30
2017-12-01T11:13:27.051Z,55.07
2017-12-01T11:15:55.404Z,55.30
2017-12-01T11:18:24.499Z,54.20
2017-12-01T11:20:52.840Z,56.47
2017-12-01T11:23:21.191Z,55.40
2017-12-01T11:25:50.296Z,52.80
2017-12-01T11:28:19.385Z,54.63
2017-12-01T11:30:48.779Z,52.10
2017-12-01T11:33:17.099Z,46.73
2017-12-01T11:35:45.432Z,47.50
2017-12-01T11:38:13.803Z,51.67
2017-12-01T11:40:42.132Z,51.93
2017-12-01T11:43:10.452Z,50.63
2017-12-01T11:45:38.811Z,52.17
2017-12-01T11:48:07.160Z,55.93
2017-12-01T11:50:35.481Z,55.23
2017-12-01T11:53:03.809Z,51.73
2017-12-01T11:55:32.156Z,50.10
2017-12-01T11:58:00.480Z,48.60
2017-12-01T12:00:42.071Z,50.27
2017-12-01T12:03:10.409Z,46.87
2017-12-01T12:05:39.518Z,47.43
2017-12-01T12:08:07.853Z,50.83
2017-12-01T12:10:36.208Z,45.67
2017-12-01T12:13:04.537Z,48.23
2017-12-01T12:15:33.628Z,49.23
2017-12-01T12:18:01.975Z,45.93
2017-12-01T12:20:30.325Z,46.40
2017-12-01T12:22:58.677Z,42.53
2017-12-01T12:25:27.788Z,44.57
2017-12-01T12:27:56.132Z,48.30
2017-12-01T12:30:24.493Z,44.97
2017-12-01T12:32:52.816Z,50.03
2017-12-01T12:35:21.142Z,46.30
2017-12-01T12:37:49.491Z,51.53
2017-12-01T12:40:17.809Z,51.03
2017-12-01T12:42:46.136Z,52.03
2017-12-01T12:45:14.526Z,45.43
2017-12-01T12:47:42.876Z,50.37
2017-12-01T12:50:11.996Z,44.30
2017-12-01T12:52:40.320Z,49.33
2017-12-01T12:55:08.644Z,47.33
2017-12-01T12:57:36.995Z,46.83
2017-12-01T13:00:06.086Z,45.50
2017-12-01T13:02:35.186Z,51.33
2017-12-01T13:05:04.312Z,50.77
2017-12-01T13:07:32.628Z,51.13
2017-12-01T13:10:00.975Z,53.90
2017-12-01T13:12:29.420Z,49.23
2017-12-01T13:14:58.539Z,50.00
2017-12-01T13:17:26.865Z,47.77
2017-12-01T13:19:55.220Z,45.70
2017-12-01T13:22:23.535Z,51.17
2017-12-01T13:24:51.872Z,45.77
2017-12-01T13:27:20.196Z,46.87
2017-12-01T13:29:49.311Z,44.20
2017-12-01T13:32:17.668Z,47.40
2017-12-01T13:34:45.994Z,52.90
2017-12-01T13:37:14.335Z,48.00
2017-12-01T13:39:43.481Z,38.50
2017-12-01T13:42:11.798Z,43.50
2017-12-01T13:44:40.148Z,42.40
2017-12-01T13:47:08.506Z,46.43
2017-12-01T13:49:36.847Z,47.30
2017-12-01T13:52:05.930Z,48.70
2017-12-01T13:54:34.259Z,48.60
2017-12-01T13:57:02.592Z,49.77
2017-12-01T13:59:31.730Z,47.10
2017-12-01T14:02:00.055Z,42.97
2017-12-01T14:04:28.427Z,46.10
2017-12-01T14:06:56.747Z,39.40
2017-12-01T14:09:25.089Z,46.83
2017-12-01T14:11:53.455Z,47.63
2017-12-01T14:14:21.773Z,47.40
2017-12-01T14:16:50.091Z,49.80
2017-12-01T14:19:18.428Z,49.00
2017-12-01T14:21:46.759Z,53.43
2017-12-01T14:24:15.120Z,53.93
2017-12-01T14:26:43.455Z,50.00
2017-12-01T14:29:12.539Z,49.77
2017-12-01T14:31:41.638Z,49.20
2017-12-01T14:34:10.727Z,56.73
2017-12-01T14:36:39.840Z,52.23
2017-12-01T14:39:08.151Z,52.63
2017-12-01T14:41:36.490Z,53.97
2017-12-01T14:44:05.635Z,51.90
2017-12-01T14:46:33.956Z,52.57
2017-12-01T14:49:03.068Z,57.50
2017-12-01T14:51:32.175Z,47.50
2017-12-01T14:54:00.490Z,50.50
2017-12-01T14:56:28.844Z,54.90
2017-12-01T14:58:57.187Z,62.23
2017-12-01T15:01:26.292Z,76.33
2017-12-01T15:03:54.623Z,59.13
2017-12-01T15:06:22.948Z,75.83
2017-12-01T15:08:51.305Z,58.13
2017-12-01T15:11:20.483Z,49.73
2017-12-01T15:13:48.823Z,53.17
2017-12-01T15:16:17.159Z,48.27
2017-12-01T15:18:46.239Z,52.53
2017-12-01T15:21:14.585Z,53.57
2017-12-01T15:23:42.911Z,53.20
2017-12-01T15:26:11.995Z,50.83
2017-12-01T15:28:40.359Z,48.50
2017-12-01T15:31:08.695Z,49.13
2017-12-01T15:33:37.012Z,54.47
2017-12-01T15:36:05.364Z,53.23
2017-12-01T15:38:33.712Z,58.07
2017-12-01T15:41:02.048Z,53.63
2017-12-01T15:43:30.392Z,48.27
2017-12-01T15:45:58.737Z,52.33
2017-12-01T15:48:27.839Z,58.00
2017-12-01T15:50:56.936Z,53.20
2017-12-01T15:53:26.063Z,48.83
2017-12-01T15:55:54.392Z,51.40
2017-12-01T15:58:22.714Z,55.27
2017-12-01T16:00:51.084Z,56.77
2017-12-01T16:03:19.413Z,52.00
2017-12-01T16:05:47.754Z,50.97
2017-12-01T16:08:16.093Z,53.30
2017-12-01T16:10:45.209Z,53.07
2017-12-01T16:13:13.524Z,53.67
2017-12-01T16:15:41.880Z,51.07
2017-12-01T16:18:10.200Z,48.47
2017-12-01T16:20:38.521Z,52.90
2017-12-01T16:23:06.863Z,49.40
2017-12-01T16:25:35.189Z,43.50
2017-12-01T16:28:03.535Z,38.77
2017-12-01T16:30:31.896Z,35.23
2017-12-01T16:33:08.393Z,34.70
2017-12-01T16:35:28.568Z,43.83
2017-12-01T16:37:57.669Z,41.27
2017-12-01T16:40:26.788Z,37.63
2017-12-01T16:42:55.109Z,36.90
2017-12-01T16:45:24.253Z,47.20
2017-12-01T16:47:52.621Z,42.37
2017-12-01T16:50:20.907Z,46.70
2017-12-01T16:52:49.239Z,37.70
2017-12-01T16:55:17.599Z,32.40
2017-12-01T16:57:45.957Z,28.10
2017-12-01T17:00:14.273Z,32.87
2017-12-01T17:02:42.586Z,30.60
2017-12-01T17:05:10.920Z,33.90
2017-12-01T17:07:39.548Z,28.20
2017-12-01T17:10:07.895Z,29.13
2017-12-01T17:12:36.225Z,26.03
2017-12-01T17:15:04.583Z,27.10
2017-12-01T17:17:32.907Z,29.80
2017-12-01T17:20:01.227Z,29.10
2017-12-01T17:22:30.348Z,27.20
2017-12-01T17:24:58.667Z,27.33
2017-12-01T17:27:27.004Z,29.40
2017-12-01T17:29:55.356Z,27.50
2017-12-01T17:32:24.434Z,28.93
2017-12-01T17:34:52.753Z,20.47
2017-12-01T17:37:21.088Z,22.30
2017-12-01T17:39:49.422Z,27.47
2017-12-01T17:42:17.778Z,22.70
2017-12-01T17:44:46.100Z,21.67
2017-12-01T17:47:14.419Z,22.60
2017-12-01T17:49:43.524Z,21.80
2017-12-01T17:52:11.881Z,22.47
2017-12-01T17:54:40.964Z,22.10
2017-12-01T17:57:09.294Z,21.70
2017-12-01T17:59:37.640Z,19.83
2017-12-01T18:02:06.735Z,19.40
2017-12-01T18:04:35.842Z,22.43
2017-12-01T18:07:04.944Z,20.60
2017-12-01T18:09:33.297Z,28.33
2017-12-01T18:12:02.377Z,24.13
2017-12-01T18:14:30.724Z,22.50
2017-12-01T18:16:59.059Z,20.10
2017-12-01T18:19:28.175Z,21.73
2017-12-01T18:21:56.539Z,22.17
2017-12-01T18:24:25.628Z,19.97
2017-12-01T18:26:54.715Z,22.23
2017-12-01T18:29:23.819Z,21.50
2017-12-01T18:31:52.930Z,23.10
2017-12-01T18:34:21.326Z,23.17
2017-12-01T18:36:49.650Z,35.37
2017-12-01T18:39:18.026Z,39.00
2017-12-01T18:41:46.383Z,41.33
2017-12-01T18:44:14.699Z,32.70
2017-12-01T18:46:43.786Z,25.50
2017-12-01T18:49:12.941Z,23.60
2017-12-01T18:51:41.247Z,27.20
2017-12-01T18:54:09.568Z,28.63
2017-12-01T18:56:37.908Z,21.87
2017-12-01T18:59:06.225Z,23.40
2017-12-01T19:01:34.548Z,25.73
2017-12-01T19:04:02.903Z,26.30
2017-12-01T19:06:31.263Z,21.03
2017-12-01T19:08:59.607Z,26.30
2017-12-01T19:11:28.712Z,28.20
2017-12-01T19:13:57.788Z,20.10
2017-12-01T19:16:26.144Z,20.37
2017-12-01T19:18:54.459Z,23.53
2017-12-01T19:21:23.543Z,30.07
2017-12-01T19:23:51.896Z,26.60
2017-12-01T19:26:20.211Z,26.37
2017-12-01T19:28:49.299Z,21.83
2017-12-01T19:31:17.643Z,26.93
2017-12-01T19:33:45.975Z,24.80
2017-12-01T19:36:14.303Z,20.30
2017-12-01T19:38:42.658Z,21.60
2017-12-01T19:41:10.981Z,22.97
2017-12-01T19:43:39.417Z,21.10
2017-12-01T19:46:07.759Z,23.87
2017-12-01T19:48:36.874Z,25.00
2017-12-01T19:51:05.227Z,23.17
2017-12-01T19:53:34.315Z,28.90
2017-12-01T19:56:02.647Z,24.80
2017-12-01T19:58:31.003Z,29.27
2017-12-01T20:00:59.332Z,27.57
2017-12-01T20:03:27.739Z,20.77
2017-12-01T20:05:56.858Z,20.83
2017-12-01T20:08:25.176Z,23.77
2017-12-01T20:10:53.501Z,22.27
2017-12-01T20:13:21.835Z,16.20
2017-12-01T20:15:50.171Z,20.13
2017-12-01T20:18:18.524Z,20.50
2017-12-01T20:20:47.615Z,21.73
2017-12-01T20:23:16.712Z,18.10
2017-12-01T20:25:45.829Z,19.10
2017-12-01T20:28:14.165Z,16.87
2017-12-01T20:30:42.488Z,15.57
2017-12-01T20:33:10.839Z,16.70
2017-12-01T20:35:39.931Z,19.07
2017-12-01T20:38:09.071Z,18.53
2017-12-01T20:40:37.413Z,15.93
2017-12-01T20:43:06.521Z,20.10
2017-12-01T20:45:35.676Z,19.93
2017-12-01T20:48:03.967Z,23.20
2017-12-01T20:50:32.298Z,22.63
2017-12-01T20:53:00.626Z,24.57
2017-12-01T20:55:28.959Z,24.47
2017-12-01T20:57:57.304Z,23.90
2017-12-01T21:00:25.635Z,31.20
2017-12-01T21:02:53.964Z,30.90
2017-12-01T21:05:22.315Z,34.13
2017-12-01T21:07:51.404Z,33.83
2017-12-01T21:10:19.767Z,32.90
2017-12-01T21:12:48.086Z,38.60
2017-12-01T21:15:17.164Z,35.10
2017-12-01T21:17:46.310Z,32.03
2017-12-01T21:20:14.631Z,36.27
2017-12-01T21:22:42.956Z,35.90
2017-12-01T21:25:11.295Z,35.10
2017-12-01T21:27:40.392Z,36.53
2017-12-01T21:30:09.499Z,33.80
2017-12-01T21:32:38.583Z,37.50
2017-12-01T21:35:07.691Z,36.30
2017-12-01T21:37:36.780Z,39.50
2017-12-01T21:40:05.883Z,38.83
2017-12-01T21:42:35.010Z,39.67
2017-12-01T21:45:03.335Z,36.80
2017-12-01T21:47:31.703Z,37.23
2017-12-01T21:50:00.020Z,35.47
2017-12-01T21:52:28.367Z,38.03
2017-12-01T21:54:56.679Z,40.70
2017-12-01T21:57:24.987Z,38.97
2017-12-01T21:59:53.323Z,41.57
2017-12-01T22:02:22.432Z,36.17
2017-12-01T22:04:50.792Z,43.67
2017-12-01T22:07:19.894Z,38.87
2017-12-01T22:09:48.227Z,39.83
2017-12-01T22:12:16.577Z,54.83
2017-12-01T22:14:44.891Z,49.03
2017-12-01T22:17:13.208Z,39.87
2017-12-01T22:19:41.560Z,40.00
2017-12-01T22:22:09.892Z,40.40
2017-12-01T22:24:38.227Z,37.37
2017-12-01T22:27:06.548Z,35.23
2017-12-01T22:29:34.877Z,37.17
2017-12-01T22:32:03.227Z,42.40
2017-12-01T22:34:31.596Z,43.67
2017-12-01T22:36:59.920Z,40.53
2017-12-01T22:39:29.027Z,42.67
2017-12-01T22:41:57.361Z,37.63
2017-12-01T22:44:25.708Z,41.70
2017-12-01T22:46:54.060Z,40.17
2017-12-01T22:49:23.143Z,34.97
2017-12-01T22:51:52.227Z,37.20
2017-12-01T22:54:20.572Z,40.40
2017-12-01T22:56:48.891Z,43.47
2017-12-01T22:59:18.003Z,40.83
2017-12-01T23:01:46.363Z,46.03
2017-12-01T23:04:15.492Z,39.80
2017-12-01T23:06:43.861Z,41.90
2017-12-01T23:09:12.184Z,44.47
2017-12-01T23:11:40.523Z,44.93
2017-12-01T23:14:08.885Z,43.17
2017-12-01T23:16:37.971Z,48.43
2017-12-01T23:19:07.057Z,40.30
2017-12-01T23:21:35.391Z,42.70
2017-12-01T23:24:03.711Z,47.77
2017-12-01T23:26:32.061Z,41.97
2017-12-01T23:29:01.149Z,48.23
2017-12-01T23:31:29.489Z,49.27
2017-12-01T23:33:57.803Z,41.27
2017-12-01T23:36:26.131Z,45.00
2017-12-01T23:38:55.279Z,43.90
2017-12-01T23:41:23.593Z,49.10
2017-12-01T23:43:52.680Z,51.67
2017-12-01T23:46:21.036Z,47.93
2017-12-01T23:48:49.368Z,47.87
2017-12-01T23:51:18.480Z,47.50
2017-12-01T23:53:46.805Z,42.53
2017-12-01T23:56:15.115Z,50.87
2017-12-01T23:58:44.231Z,43.27
